createdAt,value
2022-10-17T00:04:40.931Z,13.61
2022-10-17T00:14:43.531Z,13.65
2022-10-17T00:24:47.476Z,13.74
2022-10-17T00:34:50.087Z,13.76
2022-10-17T00:45:08.124Z,13.76
2022-10-17T00:55:14.793Z,13.71
2022-10-17T01:05:20.062Z,13.73
2022-10-17T01:15:37.938Z,13.75
2022-10-17T01:25:53.380Z,13.84
2022-10-17T01:36:05.631Z,13.90
2022-10-17T01:46:17.579Z,13.92
2022-10-17T01:56:25.857Z,13.91
2022-10-17T02:06:28.562Z,13.93
2022-10-17T02:16:38.856Z,13.84
2022-10-17T02:26:44.303Z,13.68
2022-10-17T02:36:51.736Z,13.77
2022-10-17T02:47:02.659Z,13.73
2022-10-17T02:57:11.672Z,13.65
2022-10-17T03:07:14.802Z,13.63
2022-10-17T03:17:18.952Z,13.66
2022-10-17T03:27:21.567Z,13.67
2022-10-17T03:37:25.519Z,13.60
2022-10-17T03:47:30.366Z,13.59
2022-10-17T03:57:35.766Z,13.59
2022-10-17T04:07:38.468Z,13.68
2022-10-17T04:17:42.475Z,13.74
2022-10-17T04:27:45.106Z,13.76
2022-10-17T04:37:49.164Z,13.85
2022-10-17T04:47:51.773Z,13.85
2022-10-17T04:57:55.756Z,13.94
2022-10-17T05:07:58.653Z,13.95
2022-10-17T05:18:02.945Z,14.00
2022-10-17T05:28:05.687Z,14.09
2022-10-17T05:38:09.909Z,14.18
2022-10-17T05:48:12.499Z,14.32
2022-10-17T05:58:21.981Z,14.45
2022-10-17T06:08:25.103Z,14.58
2022-10-17T06:18:29.118Z,14.73
2022-10-17T06:28:32.547Z,14.91
2022-10-17T06:38:36.733Z,14.89
2022-10-17T06:48:39.711Z,14.95
2022-10-17T06:58:43.850Z,15.12
2022-10-17T07:08:47.115Z,15.27
2022-10-17T07:18:51.632Z,15.43
2022-10-17T07:28:56.260Z,15.66
2022-10-17T07:39:00.271Z,15.99
2022-10-17T07:49:02.899Z,16.20
2022-10-17T07:59:09.309Z,16.60
2022-10-17T08:09:12.307Z,16.86
2022-10-17T08:19:16.226Z,17.48
2022-10-17T08:29:18.842Z,18.40
2022-10-17T08:39:22.887Z,19.00
2022-10-17T08:49:34.690Z,19.21
2022-10-17T08:59:38.751Z,19.25
2022-10-17T09:09:49.428Z,19.11
2022-10-17T09:20:01.068Z,19.16
2022-10-17T09:30:40.492Z,19.55
2022-10-17T09:40:56.875Z,19.35
2022-10-17T09:51:22.074Z,19.44
2022-10-17T10:01:28.180Z,19.62
2022-10-17T10:11:47.285Z,19.88
2022-10-17T10:21:57.319Z,19.81
2022-10-17T10:32:09.679Z,20.00
2022-10-17T10:42:23.033Z,19.83
2022-10-17T10:52:33.524Z,19.54
2022-10-17T11:02:44.039Z,18.43
2022-10-17T11:12:53.557Z,18.09
2022-10-17T11:23:10.476Z,17.95
2022-10-17T11:33:18.720Z,17.88
2022-10-17T11:43:29.739Z,17.76
2022-10-17T11:53:40.703Z,17.90
2022-10-17T12:04:04.159Z,17.92
2022-10-17T12:14:40.864Z,17.89
2022-10-17T12:24:47.071Z,17.98
2022-10-17T12:34:53.946Z,18.09
2022-10-17T12:44:57.924Z,18.00
2022-10-17T12:55:14.688Z,17.84
2022-10-17T13:05:26.609Z,17.80
2022-10-17T13:15:29.254Z,17.82
2022-10-17T13:25:36.520Z,17.79
2022-10-17T13:35:59.386Z,17.81
2022-10-17T13:46:25.535Z,17.93
2022-10-17T13:56:30.815Z,18.08
2022-10-17T14:06:35.738Z,18.02
2022-10-17T14:16:41.104Z,18.02
2022-10-17T14:26:52.710Z,18.07
2022-10-17T14:36:56.194Z,17.96
2022-10-17T14:47:18.185Z,17.93
2022-10-17T14:57:35.370Z,18.00
2022-10-17T15:07:39.300Z,17.84
2022-10-17T15:17:41.905Z,17.54
2022-10-17T15:27:45.910Z,17.36
2022-10-17T15:37:48.824Z,17.21
2022-10-17T15:47:54.815Z,17.02
2022-10-17T15:57:57.423Z,17.00
2022-10-17T16:08:01.363Z,16.85
2022-10-17T16:18:06.696Z,16.57
2022-10-17T16:28:12.722Z,16.52
2022-10-17T16:38:15.320Z,16.47
2022-10-17T16:48:19.319Z,16.36
2022-10-17T16:58:21.948Z,16.39
2022-10-17T17:08:25.935Z,16.36
2022-10-17T17:18:28.686Z,16.26
2022-10-17T17:28:33.929Z,16.10
2022-10-17T17:38:37.704Z,15.98
2022-10-17T17:48:42.824Z,15.81
2022-10-17T17:58:46.821Z,15.85
2022-10-17T18:08:52.879Z,15.81
2022-10-17T18:18:55.789Z,15.83
2022-10-17T18:28:59.802Z,15.85
2022-10-17T18:39:02.797Z,15.77
2022-10-17T18:49:06.755Z,15.74
2022-10-17T18:59:09.442Z,15.80
2022-10-17T19:09:14.837Z,15.78
2022-10-17T19:19:20.931Z,15.81
2022-10-17T19:29:26.804Z,15.87
2022-10-17T19:39:29.685Z,16.00
2022-10-17T19:49:33.674Z,16.03
2022-10-17T19:59:36.301Z,15.98
2022-10-17T20:09:40.281Z,15.96
2022-10-17T20:19:43.061Z,15.91
2022-10-17T20:29:47.061Z,15.92
2022-10-17T20:39:59.962Z,15.95
2022-10-17T20:50:14.136Z,15.86
2022-10-17T21:00:16.893Z,15.84
2022-10-17T21:10:36.018Z,15.86
2022-10-17T21:20:38.654Z,15.83
2022-10-17T21:30:42.566Z,15.77
2022-10-17T21:40:48.769Z,15.73
2022-10-17T21:50:59.191Z,15.63
2022-10-17T22:01:07.154Z,15.69
2022-10-17T22:11:12.798Z,15.65
2022-10-17T22:21:17.483Z,15.65
2022-10-17T22:31:21.487Z,15.60
2022-10-17T22:41:24.274Z,15.60
2022-10-17T22:51:28.427Z,15.60
2022-10-17T23:01:31.097Z,15.58
2022-10-17T23:11:35.061Z,15.53
2022-10-17T23:21:37.651Z,15.45
2022-10-17T23:31:41.736Z,15.39
2022-10-17T23:41:44.392Z,15.36
2022-10-17T23:51:48.364Z,15.31
